Arklow Spray — C6VK8 — position and weather

sailwx.info

Track history (hours):
 
Tides and Currents Weather Stations Pressure Air Temp Water Temp Dewpoint Dewpoint Depression Visibility Wind Speed Wind Dir Waves Ship Positions

Arklow Spray

Last reported at 2017-Sep-19 16:35 UTC. Time now 2017-Sep-23 05:49 UTC.
Position N 53°41' W 000°30'.

Length 90 m; draft 4.7 m.

MMSI: 309914000.

Date/timePositionNaut miles runAvg speedWind from/ knotsBaromVisibWave heightAir tempDewpointWater temp
2017-Sep-19 16:35N 53°41' W 000°30'1 8.6
2017-Sep-19 16:30N 53°41' W 000°29'510.2
2017-Sep-19 16:00N 53°43' W 000°21'4 8.7
2017-Sep-19 15:30N 53°42' W 000°14'5 9.7
2017-Sep-19 14:59N 53°38' W 000°09'6 9.4
2017-Sep-19 14:21N 53°36' E 000°00'55 4.0
2017-Sep-19 00:40N 53°01' E 001°10'210.1
2017-Sep-19 00:30N 53°00' E 001°13'510.3
2017-Sep-19 00:00N 52°58' E 001°21'510.5
2017-Sep-18 23:30N 52°57' E 001°29'5 9.6
2017-Sep-18 23:00N 52°54' E 001°35'5 9.5
2017-Sep-18 22:30N 52°50' E 001°39'4 8.9
2017-Sep-18 22:00N 52°46' E 001°44'4 8.2
2017-Sep-18 21:30N 52°43' E 001°47'4 7.4
2017-Sep-18 21:00N 52°39' E 001°51'5 6.2
2017-Sep-18 20:07N 52°34' E 001°52'1 6.1
2017-Sep-18 20:00N 52°33' E 001°52'3 6.0
2017-Sep-18 19:30N 52°30' E 001°52'3 5.9
2017-Sep-18 19:00N 52°27' E 001°52'3 5.6
2017-Sep-18 18:30N 52°25' E 001°51'13 7.6
2017-Sep-18 16:49N 52°12' E 001°50'3 9.3
2017-Sep-18 16:30N 52°09' E 001°50'5 9.9
2017-Sep-18 16:00N 52°04' E 001°50'510.8
2017-Sep-18 15:30N 51°59' E 001°49'611.3
2017-Sep-18 15:00N 51°53' E 001°49'611.3
2017-Sep-18 14:30N 51°47' E 001°49'611.2
2017-Sep-18 14:00N 51°42' E 001°49'611.1
2017-Sep-18 13:30N 51°36' E 001°49'510.8
2017-Sep-18 13:00N 51°31' E 001°48'611.7
2017-Sep-18 12:30N 51°25' E 001°45'612.2
2017-Sep-18 12:00N 51°19' E 001°42'612.5
2017-Sep-18 11:30N 51°13' E 001°39'5 9.8
2017-Sep-18 11:00N 51°09' E 001°41'611.0
2017-Sep-18 10:30N 51°04' E 001°37'612.6
2017-Sep-18 10:00N 50°59' E 001°31'125 9.2
2017-Sep-17 20:26N 50°03' W 001°26'511.8
2017-Sep-17 20:00N 50°02' W 001°33'612.4
2017-Sep-17 19:31N 50°00' W 001°43'612.8
2017-Sep-17 19:00N 49°58' W 001°52'13710.3
2017-Sep-17 05:40N 48°48' W 004°54'2 9.0
2017-Sep-17 05:29N 48°47' W 004°56'4 9.0
2017-Sep-17 05:00N 48°45' W 005°01'5 9.5
2017-Sep-17 04:30N 48°42' W 005°07'5 9.8
2017-Sep-17 04:00N 48°39' W 005°13'48 9.2
2017-Sep-16 22:48N 47°51' W 005°05'310.1
2017-Sep-16 22:30N 47°49' W 005°04'510.0
2017-Sep-16 22:00N 47°44' W 005°02'  
2017-Sep-13 21:35N 43°19' W 001°55'2 5.6
2017-Sep-13 21:09N 43°21' W 001°57'1 7.6
2017-Sep-13 20:59N 43°22' W 001°59'  
2017-Sep-10 09:41N 50°32' W 005°38'2 8.4
2017-Sep-10 09:27N 50°33' W 005°36'4 8.4
2017-Sep-10 09:00N 50°35' W 005°31'4 8.1
2017-Sep-10 08:30N 50°38' W 005°26'4 7.8
2017-Sep-10 08:00N 50°41' W 005°21'4 7.6
2017-Sep-10 07:30N 50°43' W 005°17'4 7.5
2017-Sep-10 07:00N 50°45' W 005°12'4 7.5
2017-Sep-10 06:30N 50°48' W 005°08'4 7.3
2017-Sep-10 06:00N 50°50' W 005°04'4 7.5
2017-Sep-10 05:30N 50°53' W 004°59'4 7.7
2017-Sep-10 05:00N 50°55' W 004°54'4 7.9
2017-Sep-10 04:30N 50°58' W 004°50'4 8.2
2017-Sep-10 04:00N 51°00' W 004°45'4 8.6
2017-Sep-10 03:30N 51°03' W 004°39'4 8.6
2017-Sep-10 03:00N 51°06' W 004°34'5911.8
2017-Sep-09 22:00N 51°25' W 003°05'611.0
2017-Sep-09 21:30N 51°30' W 003°00'  
Track history (hours):
 
Tides and Currents Weather Stations Pressure Air Temp Water Temp Dewpoint Dewpoint Depression Visibility Wind Speed Wind Dir Waves Ship Positions

Arklow Spray

Last reported at 2017-Sep-19 16:35 UTC. Time now 2017-Sep-23 05:49 UTC.
Position N 53°41' W 000°30'.

Length 90 m; draft 4.7 m.

MMSI: 309914000.

Date/timePositionNaut miles runAvg speedWind from/ knotsBaromVisibWave heightAir tempDewpointWater temp
2017-Sep-19 16:35N 53°41' W 000°30'1 8.6
2017-Sep-19 16:30N 53°41' W 000°29'510.2
2017-Sep-19 16:00N 53°43' W 000°21'4 8.7
2017-Sep-19 15:30N 53°42' W 000°14'5 9.7
2017-Sep-19 14:59N 53°38' W 000°09'6 9.4
2017-Sep-19 14:21N 53°36' E 000°00'55 4.0
2017-Sep-19 00:40N 53°01' E 001°10'210.1
2017-Sep-19 00:30N 53°00' E 001°13'510.3
2017-Sep-19 00:00N 52°58' E 001°21'510.5
2017-Sep-18 23:30N 52°57' E 001°29'5 9.6
2017-Sep-18 23:00N 52°54' E 001°35'5 9.5
2017-Sep-18 22:30N 52°50' E 001°39'4 8.9
2017-Sep-18 22:00N 52°46' E 001°44'4 8.2
2017-Sep-18 21:30N 52°43' E 001°47'4 7.4
2017-Sep-18 21:00N 52°39' E 001°51'5 6.2
2017-Sep-18 20:07N 52°34' E 001°52'1 6.1
2017-Sep-18 20:00N 52°33' E 001°52'3 6.0
2017-Sep-18 19:30N 52°30' E 001°52'3 5.9
2017-Sep-18 19:00N 52°27' E 001°52'3 5.6
2017-Sep-18 18:30N 52°25' E 001°51'13 7.6
2017-Sep-18 16:49N 52°12' E 001°50'3 9.3
2017-Sep-18 16:30N 52°09' E 001°50'5 9.9
2017-Sep-18 16:00N 52°04' E 001°50'510.8
2017-Sep-18 15:30N 51°59' E 001°49'611.3
2017-Sep-18 15:00N 51°53' E 001°49'611.3
2017-Sep-18 14:30N 51°47' E 001°49'611.2
2017-Sep-18 14:00N 51°42' E 001°49'611.1
2017-Sep-18 13:30N 51°36' E 001°49'510.8
2017-Sep-18 13:00N 51°31' E 001°48'611.7
2017-Sep-18 12:30N 51°25' E 001°45'612.2
2017-Sep-18 12:00N 51°19' E 001°42'612.5
2017-Sep-18 11:30N 51°13' E 001°39'5 9.8
2017-Sep-18 11:00N 51°09' E 001°41'611.0
2017-Sep-18 10:30N 51°04' E 001°37'612.6
2017-Sep-18 10:00N 50°59' E 001°31'125 9.2
2017-Sep-17 20:26N 50°03' W 001°26'511.8
2017-Sep-17 20:00N 50°02' W 001°33'612.4
2017-Sep-17 19:31N 50°00' W 001°43'612.8
2017-Sep-17 19:00N 49°58' W 001°52'13710.3
2017-Sep-17 05:40N 48°48' W 004°54'2 9.0
2017-Sep-17 05:29N 48°47' W 004°56'4 9.0
2017-Sep-17 05:00N 48°45' W 005°01'5 9.5
2017-Sep-17 04:30N 48°42' W 005°07'5 9.8
2017-Sep-17 04:00N 48°39' W 005°13'48 9.2
2017-Sep-16 22:48N 47°51' W 005°05'310.1
2017-Sep-16 22:30N 47°49' W 005°04'510.0
2017-Sep-16 22:00N 47°44' W 005°02'  
2017-Sep-13 21:35N 43°19' W 001°55'2 5.6
2017-Sep-13 21:09N 43°21' W 001°57'1 7.6
2017-Sep-13 20:59N 43°22' W 001°59'  
2017-Sep-10 09:41N 50°32' W 005°38'2 8.4
2017-Sep-10 09:27N 50°33' W 005°36'4 8.4
2017-Sep-10 09:00N 50°35' W 005°31'4 8.1
2017-Sep-10 08:30N 50°38' W 005°26'4 7.8
2017-Sep-10 08:00N 50°41' W 005°21'4 7.6
2017-Sep-10 07:30N 50°43' W 005°17'4 7.5
2017-Sep-10 07:00N 50°45' W 005°12'4 7.5
2017-Sep-10 06:30N 50°48' W 005°08'4 7.3
2017-Sep-10 06:00N 50°50' W 005°04'4 7.5
2017-Sep-10 05:30N 50°53' W 004°59'4 7.7
2017-Sep-10 05:00N 50°55' W 004°54'4 7.9
2017-Sep-10 04:30N 50°58' W 004°50'4 8.2
2017-Sep-10 04:00N 51°00' W 004°45'4 8.6
2017-Sep-10 03:30N 51°03' W 004°39'4 8.6
2017-Sep-10 03:00N 51°06' W 004°34'5911.8
2017-Sep-09 22:00N 51°25' W 003°05'611.0
2017-Sep-09 21:30N 51°30' W 003°00'  

Dump ship's entire track history